Time;durP1;ratioP1;P1;durP2;ratioP2;P2;SDS_P1;SDS_P2;PMS_P1;PMS_P2;Temp;Humidity;BMP_temperature;BMP_pressure;BME280_temperature;BME280_humidity;BME280_pressure;Samples;Min_cycle;Max_cycle;Signal;HPM_P1;HPM_P2
2021/01/11 00:01:02;;;;;;;;;;;5.10;69.10;;;;;;4955832;28;118337;-80
2021/01/11 00:03:27;;;;;;;;;;;5.10;69.10;;;;;;4956164;28;120351;-80
2021/01/11 00:05:52;;;;;;;;;;;5.10;69.10;;;;;;4956476;28;117565;-80
2021/01/11 00:08:18;;;;;;;;;;;5.10;69.10;;;;;;4973733;28;117582;-80
2021/01/11 00:10:44;;;;;;;;;;;5.10;69.00;;;;;;4956049;28;119379;-80
2021/01/11 00:13:09;;;;;;;;;;;5.10;69.10;;;;;;4956085;28;118784;-80
2021/01/11 00:15:35;;;;;;;;;;;5.10;69.10;;;;;;4974319;28;117491;-80
2021/01/11 00:18:00;;;;;;;;;;;5.10;69.10;;;;;;4973673;28;118087;-80
2021/01/11 00:20:26;;;;;;;;;;;5.10;69.00;;;;;;4956045;28;117890;-80
2021/01/11 00:22:52;;;;;;;;;;;5.10;69.10;;;;;;4968705;28;117986;-80
2021/01/11 00:25:17;;;;;;;;;;;5.10;68.90;;;;;;4953811;28;117457;-80
2021/01/11 00:27:43;;;;;;;;;;;5.10;69.00;;;;;;4953793;28;117390;-80
2021/01/11 00:30:08;;;;;;;;;;;5.10;69.00;;;;;;4952260;28;118670;-80
2021/01/11 00:32:34;;;;;;;;;;;5.10;69.00;;;;;;4968778;28;117987;-80
2021/01/11 00:35:00;;;;;;;;;;;5.10;69.00;;;;;;4970404;28;117314;-80
2021/01/11 00:37:26;;;;;;;;;;;5.10;68.90;;;;;;4952873;28;117810;-80
2021/01/11 00:39:53;;;;;;;;;;;5.10;68.90;;;;;;4952928;28;120354;-80
2021/01/11 00:42:18;;;;;;;;;;;5.10;68.90;;;;;;4952352;28;120431;-80
2021/01/11 00:44:44;;;;;;;;;;;5.10;69.50;;;;;;4953427;28;117549;-80
2021/01/11 00:47:09;;;;;;;;;;;5.10;68.90;;;;;;4954228;28;117852;-80
2021/01/11 00:49:35;;;;;;;;;;;5.00;68.70;;;;;;4952313;28;119538;-80
2021/01/11 00:52:02;;;;;;;;;;;5.00;68.70;;;;;;4952670;28;117543;-80
2021/01/11 00:54:27;;;;;;;;;;;5.00;68.80;;;;;;4969878;28;117487;-80
2021/01/11 00:56:53;;;;;;;;;;;5.00;68.70;;;;;;4955667;28;117885;-80
2021/01/11 00:59:18;;;;;;;;;;;5.00;68.60;;;;;;4973732;28;117563;-80
2021/01/11 01:01:48;;;;;;;;;;;5.00;68.70;;;;;;4956650;28;117569;-80
2021/01/11 01:04:13;;;;;;;;;;;5.00;68.70;;;;;;4974729;28;118107;-80
2021/01/11 01:06:39;;;;;;;;;;;5.00;68.70;;;;;;4991919;28;117771;-80
2021/01/11 01:09:04;;;;;;;;;;;5.00;68.60;;;;;;4956824;28;119594;-80
2021/01/11 01:11:30;;;;;;;;;;;5.00;68.50;;;;;;4974285;28;119949;-80
2021/01/11 01:13:55;;;;;;;;;;;5.00;68.50;;;;;;4974940;28;117431;-80
2021/01/11 01:16:27;;;;;;;;;;;5.00;68.70;;;;;;4993547;28;117770;-80
2021/01/11 01:18:53;;;;;;;;;;;5.00;68.40;;;;;;4974368;28;117487;-80
2021/01/11 01:21:18;;;;;;;;;;;5.00;68.50;;;;;;4957638;28;117495;-80
2021/01/11 01:23:44;;;;;;;;;;;5.00;68.50;;;;;;4958869;28;117802;-80
2021/01/11 01:26:09;;;;;;;;;;;5.00;68.50;;;;;;4976422;28;117740;-80
2021/01/11 01:28:35;;;;;;;;;;;5.00;68.50;;;;;;4958695;28;119423;-80
2021/01/11 01:31:00;;;;;;;;;;;5.00;68.30;;;;;;4975393;28;118020;-80
2021/01/11 01:33:26;;;;;;;;;;;5.00;68.40;;;;;;4956921;28;117444;-81
2021/01/11 01:35:51;;;;;;;;;;;5.00;68.40;;;;;;4955363;28;117437;-81
2021/01/11 01:38:17;;;;;;;;;;;5.00;68.40;;;;;;4971261;28;118820;-80
2021/01/11 01:40:45;;;;;;;;;;;5.00;68.40;;;;;;4954145;28;117618;-80
2021/01/11 01:43:11;;;;;;;;;;;5.00;68.40;;;;;;4955651;28;117321;-80
2021/01/11 01:45:36;;;;;;;;;;;5.00;68.40;;;;;;4972477;28;117729;-80
2021/01/11 01:48:02;;;;;;;;;;;5.00;68.40;;;;;;4971250;28;117567;-80
2021/01/11 01:50:28;;;;;;;;;;;5.00;68.50;;;;;;4971033;28;117922;-80
2021/01/11 01:52:53;;;;;;;;;;;5.00;68.40;;;;;;4955536;28;117302;-80
2021/01/11 01:55:19;;;;;;;;;;;5.00;68.30;;;;;;4955321;28;117843;-80
2021/01/11 01:57:44;;;;;;;;;;;5.00;68.10;;;;;;4954533;28;120557;-80
2021/01/11 02:00:11;;;;;;;;;;;5.00;68.20;;;;;;4971875;28;117484;-80
2021/01/11 02:02:36;;;;;;;;;;;5.00;68.20;;;;;;4955845;28;117497;-80
2021/01/11 02:05:02;;;;;;;;;;;5.00;68.20;;;;;;4972621;28;117872;-80
2021/01/11 02:07:31;;;;;;;;;;;5.00;68.10;;;;;;4954701;28;119147;-80
2021/01/11 02:10:01;;;;;;;;;;;5.00;68.30;;;;;;4954726;28;119355;-80
2021/01/11 02:12:28;;;;;;;;;;;5.00;68.10;;;;;;4956494;28;117474;-80
2021/01/11 02:15:05;;;;;;;;;;;5.00;68.10;;;;;;4973219;28;117839;-80
2021/01/11 02:17:40;;;;;;;;;;;5.00;68.10;;;;;;4972337;28;119349;-80
2021/01/11 02:20:06;;;;;;;;;;;5.00;68.40;;;;;;4971689;28;117357;-80
2021/01/11 02:22:31;;;;;;;;;;;4.90;68.00;;;;;;4991088;28;117450;-80
2021/01/11 02:25:20;;;;;;;;;;;4.90;67.90;;;;;;4973902;28;117067;-80
2021/01/11 02:27:49;;;;;;;;;;;5.00;68.00;;;;;;4966856;28;121252;-80
2021/01/11 02:30:24;;;;;;;;;;;5.00;68.00;;;;;;4973056;28;117662;-80
2021/01/11 02:32:50;;;;;;;;;;;4.90;67.90;;;;;;4974194;28;117329;-80
2021/01/11 02:35:16;;;;;;;;;;;4.90;67.80;;;;;;4958136;28;117688;-80
2021/01/11 02:37:41;;;;;;;;;;;4.90;67.80;;;;;;4956512;28;119172;-80
2021/01/11 02:40:08;;;;;;;;;;;4.90;68.10;;;;;;4956693;28;119551;-79
2021/01/11 02:42:33;;;;;;;;;;;4.90;67.90;;;;;;4958205;28;117316;-79
2021/01/11 02:44:59;;;;;;;;;;;4.90;67.80;;;;;;4958040;28;117629;-79
2021/01/11 02:47:33;;;;;;;;;;;4.90;67.70;;;;;;4955818;28;119352;-81
2021/01/11 02:49:59;;;;;;;;;;;4.90;67.80;;;;;;4970492;28;117765;-80
2021/01/11 02:52:27;;;;;;;;;;;4.90;67.90;;;;;;4954521;28;117610;-80
2021/01/11 02:55:00;;;;;;;;;;;4.90;67.70;;;;;;4971063;28;117934;-80
2021/01/11 02:57:25;;;;;;;;;;;4.90;67.80;;;;;;4970179;28;118596;-80
2021/01/11 02:59:51;;;;;;;;;;;4.90;67.80;;;;;;4987950;28;117403;-80
2021/01/11 03:02:17;;;;;;;;;;;4.90;67.70;;;;;;4954484;28;117545;-80
2021/01/11 03:04:42;;;;;;;;;;;4.90;67.70;;;;;;4970573;28;117808;-80
2021/01/11 03:07:08;;;;;;;;;;;4.90;67.70;;;;;;4953362;28;120313;-79
2021/01/11 03:09:36;;;;;;;;;;;4.90;67.80;;;;;;4953190;28;118533;-79
2021/01/11 03:12:02;;;;;;;;;;;4.90;67.70;;;;;;4954516;28;117388;-79
2021/01/11 03:14:27;;;;;;;;;;;4.90;67.70;;;;;;4955411;28;117815;-79
2021/01/11 03:16:53;;;;;;;;;;;4.90;67.60;;;;;;4953805;28;119344;-79
2021/01/11 03:19:18;;;;;;;;;;;4.90;67.80;;;;;;4952823;28;117492;-79
2021/01/11 03:21:44;;;;;;;;;;;4.90;67.60;;;;;;4971591;28;117476;-79
2021/01/11 03:24:10;;;;;;;;;;;4.90;67.70;;;;;;4971564;28;117494;-79
2021/01/11 03:26:35;;;;;;;;;;;4.90;67.70;;;;;;4954615;28;119699;-79
2021/01/11 03:29:01;;;;;;;;;;;4.90;67.70;;;;;;4954753;28;118822;-79
2021/01/11 03:31:27;;;;;;;;;;;4.90;67.60;;;;;;4972042;28;117812;-79
2021/01/11 03:33:52;;;;;;;;;;;4.90;67.50;;;;;;4971819;28;118023;-79
2021/01/11 03:36:18;;;;;;;;;;;4.90;67.70;;;;;;4954347;28;117477;-79
2021/01/11 03:38:43;;;;;;;;;;;4.80;67.40;;;;;;4954747;28;118921;-80
2021/01/11 03:41:09;;;;;;;;;;;4.80;67.50;;;;;;4972415;28;117365;-80
2021/01/11 03:43:38;;;;;;;;;;;4.80;67.50;;;;;;4955970;28;117864;-80
2021/01/11 03:46:04;;;;;;;;;;;4.80;67.50;;;;;;4955210;28;120686;-80
2021/01/11 03:48:29;;;;;;;;;;;4.90;67.60;;;;;;4955168;28;120082;-81
2021/01/11 03:50:55;;;;;;;;;;;4.90;67.40;;;;;;4973415;28;117500;-80
2021/01/11 03:53:21;;;;;;;;;;;4.80;67.60;;;;;;4974327;28;116889;-80
2021/01/11 03:55:46;;;;;;;;;;;4.80;67.30;;;;;;4973226;28;117584;-80
2021/01/11 03:58:12;;;;;;;;;;;4.90;67.40;;;;;;4972478;28;117538;-80
2021/01/11 04:00:37;;;;;;;;;;;4.80;67.30;;;;;;4957533;28;117675;-80
2021/01/11 04:03:03;;;;;;;;;;;4.80;67.20;;;;;;4954938;28;117379;-80
2021/01/11 04:05:28;;;;;;;;;;;4.80;67.20;;;;;;4952315;28;118663;-80
2021/01/11 04:07:54;;;;;;;;;;;4.80;67.20;;;;;;4952752;28;117996;-80
2021/01/11 04:10:20;;;;;;;;;;;4.80;67.20;;;;;;4953462;28;117475;-80
2021/01/11 04:12:45;;;;;;;;;;;4.80;67.30;;;;;;4953931;28;117417;-80
2021/01/11 04:15:11;;;;;;;;;;;4.80;67.20;;;;;;4952411;28;118398;-80
2021/01/11 04:17:36;;;;;;;;;;;4.80;67.20;;;;;;4969016;28;117734;-80
2021/01/11 04:20:03;;;;;;;;;;;4.80;67.20;;;;;;4970109;28;117504;-80
2021/01/11 04:22:29;;;;;;;;;;;4.80;67.20;;;;;;4969739;28;117598;-80
2021/01/11 04:24:54;;;;;;;;;;;4.80;67.20;;;;;;4952874;28;119500;-80
2021/01/11 04:27:20;;;;;;;;;;;4.80;67.20;;;;;;4969102;28;117876;-80
2021/01/11 04:29:45;;;;;;;;;;;4.80;67.10;;;;;;4953239;28;117452;-81
2021/01/11 04:32:11;;;;;;;;;;;4.80;67.10;;;;;;4954169;28;117498;-80
2021/01/11 04:34:36;;;;;;;;;;;4.80;67.10;;;;;;4952193;28;120558;-80
2021/01/11 04:37:02;;;;;;;;;;;4.80;67.10;;;;;;4968978;28;117642;-80
2021/01/11 04:39:27;;;;;;;;;;;4.80;67.00;;;;;;4970303;28;117693;-80
2021/01/11 04:41:53;;;;;;;;;;;4.80;67.00;;;;;;4954093;28;117872;-80
2021/01/11 04:44:19;;;;;;;;;;;4.80;67.70;;;;;;4953063;28;119401;-80
2021/01/11 04:46:44;;;;;;;;;;;4.80;66.90;;;;;;4952343;28;119474;-80
2021/01/11 04:49:10;;;;;;;;;;;4.80;67.10;;;;;;4953676;28;117867;-80
2021/01/11 04:51:40;;;;;;;;;;;4.80;67.20;;;;;;4971368;28;117774;-80
2021/01/11 04:54:06;;;;;;;;;;;4.80;67.00;;;;;;4953979;28;119402;-80
2021/01/11 04:56:31;;;;;;;;;;;4.80;67.00;;;;;;4953986;28;118807;-80
2021/01/11 04:58:57;;;;;;;;;;;4.80;66.90;;;;;;4955083;28;117968;-80
2021/01/11 05:01:23;;;;;;;;;;;4.70;67.00;;;;;;4971836;28;117735;-80
2021/01/11 05:03:49;;;;;;;;;;;4.80;67.00;;;;;;4953399;28;117672;-80
2021/01/11 05:06:16;;;;;;;;;;;4.80;66.90;;;;;;4970892;28;117474;-80
2021/01/11 05:08:41;;;;;;;;;;;4.80;67.10;;;;;;4971960;28;117633;-80
2021/01/11 05:11:07;;;;;;;;;;;4.80;66.80;;;;;;4954919;28;117273;-80
2021/01/11 05:13:32;;;;;;;;;;;4.70;66.90;;;;;;4971342;28;119246;-80
2021/01/11 05:15:59;;;;;;;;;;;4.80;66.90;;;;;;4954748;28;117869;-81
2021/01/11 05:18:31;;;;;;;;;;;4.70;66.70;;;;;;4968705;28;117826;-81
2021/01/11 05:20:56;;;;;;;;;;;4.80;66.90;;;;;;4952510;28;117825;-80
2021/01/11 05:23:22;;;;;;;;;;;4.70;66.90;;;;;;4951215;28;120653;-80
2021/01/11 05:25:47;;;;;;;;;;;4.80;66.90;;;;;;4951072;28;117511;-80
2021/01/11 05:28:13;;;;;;;;;;;4.70;66.60;;;;;;4968738;28;117341;-80
2021/01/11 05:30:49;;;;;;;;;;;4.70;66.90;;;;;;4968894;28;117538;-80
2021/01/11 05:33:21;;;;;;;;;;;4.70;66.60;;;;;;4951188;28;118519;-80
2021/01/11 05:35:47;;;;;;;;;;;4.70;66.60;;;;;;4950622;28;119558;-80
2021/01/11 05:38:16;;;;;;;;;;;4.70;66.70;;;;;;4952315;28;117300;-80
2021/01/11 05:40:42;;;;;;;;;;;4.70;66.90;;;;;;4952852;28;117731;-80
2021/01/11 05:43:07;;;;;;;;;;;4.70;66.70;;;;;;4970327;28;118637;-80
2021/01/11 05:45:33;;;;;;;;;;;4.70;66.70;;;;;;4971600;28;117944;-80
2021/01/11 05:48:03;;;;;;;;;;;4.70;66.70;;;;;;4972378;28;117515;-80
2021/01/11 05:50:47;;;;;;;;;;;4.70;66.90;;;;;;4972327;28;117753;-80
2021/01/11 05:53:14;;;;;;;;;;;4.70;66.60;;;;;;4955798;28;119870;-80
2021/01/11 05:55:39;;;;;;;;;;;4.70;66.70;;;;;;4955644;28;118331;-80
2021/01/11 05:58:05;;;;;;;;;;;4.70;66.70;;;;;;4955876;28;116700;-80
2021/01/11 06:00:31;;;;;;;;;;;4.70;66.90;;;;;;4956025;28;117476;-79
2021/01/11 06:02:57;;;;;;;;;;;4.70;66.60;;;;;;4955742;28;117405;-79
2021/01/11 06:05:23;;;;;;;;;;;4.70;66.70;;;;;;4955674;28;117505;-79
2021/01/11 06:07:48;;;;;;;;;;;4.70;66.70;;;;;;4973590;28;117587;-79
2021/01/11 06:10:14;;;;;;;;;;;4.70;66.70;;;;;;4956801;28;117382;-79
2021/01/11 06:12:40;;;;;;;;;;;4.70;66.70;;;;;;4973448;28;118825;-79
2021/01/11 06:15:09;;;;;;;;;;;4.70;66.70;;;;;;4956725;28;117600;-79
2021/01/11 06:17:35;;;;;;;;;;;4.70;66.60;;;;;;4974696;28;117435;-79
2021/01/11 06:20:01;;;;;;;;;;;4.60;66.60;;;;;;4974255;28;117813;-79
2021/01/11 06:22:45;;;;;;;;;;;4.70;66.80;;;;;;4973411;28;117624;-81
2021/01/11 06:25:16;;;;;;;;;;;4.70;66.50;;;;;;4990577;28;117576;-81
2021/01/11 06:27:51;;;;;;;;;;;4.70;66.30;;;;;;4974928;28;116850;-81
2021/01/11 06:30:25;;;;;;;;;;;4.60;66.30;;;;;;4961174;28;117297;-80
2021/01/11 06:32:50;;;;;;;;;;;4.70;66.40;;;;;;4955076;28;121373;-81
2021/01/11 06:35:16;;;;;;;;;;;4.60;66.40;;;;;;4953727;28;117450;-80
2021/01/11 06:37:41;;;;;;;;;;;4.60;66.20;;;;;;4954396;28;117357;-80
2021/01/11 06:40:08;;;;;;;;;;;4.60;66.20;;;;;;4955487;28;117349;-80
2021/01/11 06:42:33;;;;;;;;;;;4.60;66.20;;;;;;4954932;28;117607;-80
2021/01/11 06:44:59;;;;;;;;;;;4.60;66.20;;;;;;4953977;28;119948;-80
2021/01/11 06:47:28;;;;;;;;;;;4.60;66.30;;;;;;4971660;28;117398;-80
2021/01/11 06:49:58;;;;;;;;;;;4.60;66.20;;;;;;4954693;28;117906;-80
2021/01/11 06:52:26;;;;;;;;;;;4.60;66.50;;;;;;4970855;28;118906;-80
2021/01/11 06:54:51;;;;;;;;;;;4.60;66.20;;;;;;4954851;28;118968;-81
2021/01/11 06:57:18;;;;;;;;;;;4.60;66.30;;;;;;4972006;28;117754;-81
2021/01/11 06:59:47;;;;;;;;;;;4.60;66.20;;;;;;4972951;28;117535;-80
2021/01/11 07:02:19;;;;;;;;;;;4.60;66.30;;;;;;4954679;28;117490;-80
2021/01/11 07:04:46;;;;;;;;;;;4.60;66.20;;;;;;4971646;28;117983;-80
2021/01/11 07:07:18;;;;;;;;;;;4.60;66.30;;;;;;4956472;28;117523;-80
2021/01/11 07:09:54;;;;;;;;;;;4.60;66.30;;;;;;4972658;28;117694;-80
2021/01/11 07:12:20;;;;;;;;;;;4.60;66.30;;;;;;4954997;28;119500;-80
2021/01/11 07:14:53;;;;;;;;;;;4.60;66.40;;;;;;4954586;28;119692;-80
2021/01/11 07:17:37;;;;;;;;;;;4.60;66.50;;;;;;4990818;28;117432;-80
2021/01/11 07:20:03;;;;;;;;;;;4.60;66.60;;;;;;4991464;28;118089;-80
2021/01/11 07:22:29;;;;;;;;;;;4.60;66.50;;;;;;4956093;28;119688;-79
2021/01/11 07:24:54;;;;;;;;;;;4.60;66.50;;;;;;4955974;28;119759;-79
2021/01/11 07:27:20;;;;;;;;;;;4.60;66.30;;;;;;4957197;28;117465;-79
2021/01/11 07:29:46;;;;;;;;;;;4.60;66.60;;;;;;4973919;28;117404;-79
2021/01/11 07:32:11;;;;;;;;;;;4.60;66.40;;;;;;4957229;28;120589;-79
2021/01/11 07:34:38;;;;;;;;;;;4.60;66.40;;;;;;4956904;28;117733;-79
2021/01/11 07:37:03;;;;;;;;;;;4.60;66.50;;;;;;4958472;28;117653;-79
2021/01/11 07:39:29;;;;;;;;;;;4.60;66.30;;;;;;4972093;28;117723;-81
2021/01/11 07:41:55;;;;;;;;;;;4.60;66.40;;;;;;4954122;28;121048;-81
2021/01/11 07:44:50;;;;;;;;;;;4.60;66.60;;;;;;4953769;28;117990;-81
2021/01/11 07:47:16;;;;;;;;;;;4.60;66.60;;;;;;4961039;28;117739;-81
2021/01/11 07:49:42;;;;;;;;;;;4.60;66.40;;;;;;4953021;28;117951;-81
2021/01/11 07:52:15;;;;;;;;;;;4.60;66.50;;;;;;4951713;28;118470;-81
2021/01/11 07:54:41;;;;;;;;;;;4.60;66.50;;;;;;4952217;28;118601;-81
2021/01/11 07:57:13;;;;;;;;;;;4.60;66.50;;;;;;4969585;28;117668;-81
2021/01/11 07:59:39;;;;;;;;;;;4.60;66.60;;;;;;4969399;28;117686;-81
2021/01/11 08:02:08;;;;;;;;;;;4.60;66.30;;;;;;4968453;28;118798;-81
2021/01/11 08:04:37;;;;;;;;;;;4.50;66.40;;;;;;4951133;28;117722;-81
2021/01/11 08:07:09;;;;;;;;;;;4.60;66.50;;;;;;4952619;28;117343;-81
2021/01/11 08:09:35;;;;;;;;;;;4.60;66.60;;;;;;4952762;28;117779;-81
2021/01/11 08:12:05;;;;;;;;;;;4.50;66.40;;;;;;4952217;28;119597;-81
2021/01/11 08:14:30;;;;;;;;;;;4.60;66.50;;;;;;4951994;28;119394;-81
2021/01/11 08:16:56;;;;;;;;;;;4.50;66.30;;;;;;4952756;28;117543;-81
2021/01/11 08:19:21;;;;;;;;;;;4.50;66.40;;;;;;4969727;28;117817;-81
2021/01/11 08:21:54;;;;;;;;;;;4.60;66.60;;;;;;4952350;28;117560;-81
2021/01/11 08:24:20;;;;;;;;;;;4.50;66.40;;;;;;4951906;28;118130;-81
2021/01/11 08:26:47;;;;;;;;;;;4.50;66.40;;;;;;4953336;28;117524;-81
2021/01/11 08:29:13;;;;;;;;;;;4.50;66.50;;;;;;4953108;28;116950;-81
2021/01/11 08:31:38;;;;;;;;;;;4.60;66.60;;;;;;4969045;28;117538;-81
2021/01/11 08:34:05;;;;;;;;;;;4.60;66.50;;;;;;4952595;28;118034;-81
2021/01/11 08:36:30;;;;;;;;;;;4.60;66.40;;;;;;4970171;28;117348;-81
2021/01/11 08:39:02;;;;;;;;;;;4.60;66.60;;;;;;4953814;28;117647;-81
2021/01/11 08:41:28;;;;;;;;;;;4.50;66.40;;;;;;4969089;28;119723;-81
2021/01/11 08:43:54;;;;;;;;;;;4.60;67.00;;;;;;4952767;28;119741;-81
2021/01/11 08:46:19;;;;;;;;;;;4.60;66.50;;;;;;4953634;28;117371;-81
2021/01/11 08:48:44;;;;;;;;;;;4.60;66.50;;;;;;4953617;28;117831;-81
2021/01/11 08:51:11;;;;;;;;;;;4.50;66.30;;;;;;4969827;28;117800;-81
2021/01/11 08:53:37;;;;;;;;;;;4.50;66.30;;;;;;4968722;28;117693;-81
2021/01/11 08:56:12;;;;;;;;;;;4.60;66.50;;;;;;4953971;28;117548;-81
2021/01/11 08:58:47;;;;;;;;;;;4.50;66.50;;;;;;4970809;28;117289;-81
2021/01/11 09:01:33;;;;;;;;;;;4.50;66.40;;;;;;4951478;28;117610;-81
2021/01/11 09:03:59;;;;;;;;;;;4.50;66.40;;;;;;4950831;28;120963;-81
2021/01/11 09:06:33;;;;;;;;;;;4.60;66.60;;;;;;4951649;28;117572;-81
2021/01/11 09:09:09;;;;;;;;;;;4.50;66.50;;;;;;4968267;28;117337;-81
2021/01/11 09:11:34;;;;;;;;;;;4.50;66.50;;;;;;4950931;28;120118;-81
2021/01/11 09:14:06;;;;;;;;;;;4.60;66.60;;;;;;4950400;28;118257;-81
2021/01/11 09:16:32;;;;;;;;;;;4.50;66.60;;;;;;4951578;28;117542;-81
2021/01/11 09:19:24;;;;;;;;;;;4.50;66.60;;;;;;4971230;28;117393;-81
2021/01/11 09:21:58;;;;;;;;;;;4.50;66.70;;;;;;4968453;28;120716;-81
2021/01/11 09:24:24;;;;;;;;;;;4.50;66.60;;;;;;4970842;28;118776;-81
2021/01/11 09:26:52;;;;;;;;;;;4.50;66.70;;;;;;4955392;28;117960;-81
2021/01/11 09:29:17;;;;;;;;;;;4.50;66.70;;;;;;4955853;28;117766;-81
2021/01/11 09:31:43;;;;;;;;;;;4.60;66.70;;;;;;4954303;28;120636;-81
2021/01/11 09:34:08;;;;;;;;;;;4.50;66.70;;;;;;4970927;28;117254;-81
2021/01/11 09:36:34;;;;;;;;;;;4.50;66.80;;;;;;4972722;28;117394;-81
2021/01/11 09:39:00;;;;;;;;;;;4.50;66.70;;;;;;4956746;28;117264;-81
2021/01/11 09:41:25;;;;;;;;;;;4.50;66.80;;;;;;4956101;28;117748;-81
2021/01/11 09:43:51;;;;;;;;;;;4.60;66.80;;;;;;4971956;28;117997;-81
2021/01/11 09:46:16;;;;;;;;;;;4.50;66.70;;;;;;4956774;28;117521;-81
2021/01/11 09:48:42;;;;;;;;;;;4.50;66.60;;;;;;4973404;28;117760;-81
2021/01/11 09:51:07;;;;;;;;;;;4.60;67.00;;;;;;4956152;28;120151;-81
2021/01/11 09:53:33;;;;;;;;;;;4.50;66.80;;;;;;4956198;28;119445;-81
2021/01/11 09:55:58;;;;;;;;;;;4.50;66.70;;;;;;4973267;28;117611;-81
2021/01/11 09:58:24;;;;;;;;;;;4.50;66.80;;;;;;4957897;28;117445;-81
2021/01/11 10:00:49;;;;;;;;;;;4.50;66.70;;;;;;4972575;28;117610;-80
2021/01/11 10:03:15;;;;;;;;;;;4.50;66.80;;;;;;4955958;28;118480;-80
2021/01/11 10:05:40;;;;;;;;;;;4.50;66.80;;;;;;4957067;28;117577;-80
2021/01/11 10:08:06;;;;;;;;;;;4.50;66.80;;;;;;4973402;28;117505;-80
2021/01/11 10:10:31;;;;;;;;;;;4.50;66.80;;;;;;4956034;28;117316;-80
2021/01/11 10:12:57;;;;;;;;;;;4.50;66.90;;;;;;4973402;28;117273;-80
2021/01/11 10:15:22;;;;;;;;;;;4.50;66.90;;;;;;4956936;28;117387;-80
2021/01/11 10:17:48;;;;;;;;;;;4.50;67.00;;;;;;4971655;28;117400;-80
2021/01/11 10:20:14;;;;;;;;;;;4.50;67.00;;;;;;4953504;28;118686;-80
2021/01/11 10:22:40;;;;;;;;;;;4.50;67.00;;;;;;4954278;28;119198;-80
2021/01/11 10:25:06;;;;;;;;;;;4.50;67.00;;;;;;4955008;28;117613;-80
2021/01/11 10:27:31;;;;;;;;;;;4.50;67.20;;;;;;4971285;28;117839;-80
2021/01/11 10:29:57;;;;;;;;;;;4.50;67.10;;;;;;4953712;28;119534;-80
2021/01/11 10:32:22;;;;;;;;;;;4.50;67.20;;;;;;4953328;28;119799;-81
2021/01/11 10:34:48;;;;;;;;;;;4.50;67.10;;;;;;4954759;28;117568;-81
2021/01/11 10:37:13;;;;;;;;;;;4.50;67.20;;;;;;4971823;28;117616;-80
2021/01/11 10:39:39;;;;;;;;;;;4.50;67.20;;;;;;4954371;28;121401;-80
2021/01/11 10:42:04;;;;;;;;;;;4.50;67.10;;;;;;4954523;28;118567;-80
2021/01/11 10:44:30;;;;;;;;;;;4.50;67.20;;;;;;4955183;28;117478;-80
2021/01/11 10:46:59;;;;;;;;;;;4.50;67.20;;;;;;4972381;28;117404;-80
2021/01/11 10:49:25;;;;;;;;;;;4.50;67.20;;;;;;4955361;28;117599;-80
2021/01/11 10:51:50;;;;;;;;;;;4.50;67.30;;;;;;4955257;28;119745;-80
2021/01/11 10:54:16;;;;;;;;;;;4.50;67.40;;;;;;4956265;28;117511;-80
2021/01/11 10:56:42;;;;;;;;;;;4.50;67.30;;;;;;4955673;28;116869;-80
2021/01/11 10:59:07;;;;;;;;;;;4.50;67.40;;;;;;4955651;28;121530;-80
2021/01/11 11:01:33;;;;;;;;;;;4.50;67.50;;;;;;4955517;28;119374;-80
2021/01/11 11:03:58;;;;;;;;;;;4.50;67.50;;;;;;4972946;28;117484;-80
2021/01/11 11:06:25;;;;;;;;;;;4.50;67.50;;;;;;4957005;28;117876;-80
2021/01/11 11:08:51;;;;;;;;;;;4.50;67.50;;;;;;4955822;28;118806;-80
2021/01/11 11:11:17;;;;;;;;;;;4.50;67.40;;;;;;4956375;28;118822;-80
2021/01/11 11:13:42;;;;;;;;;;;4.50;67.50;;;;;;4958000;28;117716;-80
2021/01/11 11:16:08;;;;;;;;;;;4.50;67.40;;;;;;4958095;28;117269;-80
2021/01/11 11:18:35;;;;;;;;;;;4.50;67.50;;;;;;4957795;28;121387;-80
2021/01/11 11:21:00;;;;;;;;;;;4.50;67.40;;;;;;4956317;28;119871;-80
2021/01/11 11:23:26;;;;;;;;;;;4.50;67.50;;;;;;4957796;28;117517;-80
2021/01/11 11:25:51;;;;;;;;;;;4.40;67.40;;;;;;4975144;28;117749;-80
2021/01/11 11:28:17;;;;;;;;;;;4.50;67.40;;;;;;4958418;28;120529;-80
2021/01/11 11:30:43;;;;;;;;;;;4.50;67.50;;;;;;4956333;28;117780;-80
2021/01/11 11:33:09;;;;;;;;;;;4.50;67.40;;;;;;4971439;28;117864;-80
2021/01/11 11:35:34;;;;;;;;;;;4.50;67.40;;;;;;4954775;28;117851;-80
2021/01/11 11:38:00;;;;;;;;;;;4.50;67.40;;;;;;4953080;28;119460;-80
2021/01/11 11:40:25;;;;;;;;;;;4.40;68.00;;;;;;4951726;28;118419;-80
2021/01/11 11:42:51;;;;;;;;;;;4.40;67.50;;;;;;4954501;28;116813;-80
2021/01/11 11:45:18;;;;;;;;;;;4.40;67.50;;;;;;4954092;28;117871;-80
2021/01/11 11:47:43;;;;;;;;;;;4.40;67.50;;;;;;4953720;28;117671;-80
2021/01/11 11:50:13;;;;;;;;;;;4.50;67.50;;;;;;4969332;28;118853;-80
2021/01/11 11:52:38;;;;;;;;;;;4.40;67.50;;;;;;4954627;28;117562;-80
2021/01/11 11:55:05;;;;;;;;;;;4.50;67.50;;;;;;4971215;28;117828;-80
2021/01/11 11:57:30;;;;;;;;;;;4.50;67.60;;;;;;4970220;28;118814;-80
2021/01/11 11:59:56;;;;;;;;;;;4.50;67.40;;;;;;4953454;28;117259;-80
2021/01/11 12:02:21;;;;;;;;;;;4.40;67.50;;;;;;4971696;28;117341;-80
2021/01/11 12:04:47;;;;;;;;;;;4.50;67.50;;;;;;4971670;28;117401;-80
2021/01/11 12:07:16;;;;;;;;;;;4.40;67.50;;;;;;4953765;28;117411;-80
2021/01/11 12:09:41;;;;;;;;;;;4.40;67.50;;;;;;4970062;28;118155;-80
2021/01/11 12:12:07;;;;;;;;;;;4.50;67.50;;;;;;4954976;28;117574;-80
2021/01/11 12:14:32;;;;;;;;;;;4.40;67.50;;;;;;4971992;28;117721;-80
2021/01/11 12:16:58;;;;;;;;;;;4.40;67.50;;;;;;4954305;28;119849;-80
2021/01/11 12:19:23;;;;;;;;;;;4.40;67.60;;;;;;4953812;28;120051;-81
2021/01/11 12:21:49;;;;;;;;;;;4.40;67.60;;;;;;4955379;28;117447;-81
2021/01/11 12:24:14;;;;;;;;;;;4.50;67.70;;;;;;4972140;28;117757;-81
2021/01/11 12:26:40;;;;;;;;;;;4.50;67.50;;;;;;4955217;28;118836;-81
2021/01/11 12:29:06;;;;;;;;;;;4.40;67.60;;;;;;4972326;28;117712;-81
2021/01/11 12:31:31;;;;;;;;;;;4.40;67.50;;;;;;4956678;28;117511;-80
2021/01/11 12:33:57;;;;;;;;;;;4.40;67.40;;;;;;4973634;28;117292;-80
2021/01/11 12:36:26;;;;;;;;;;;4.40;67.60;;;;;;4973213;28;117737;-80
2021/01/11 12:38:55;;;;;;;;;;;4.40;67.50;;;;;;4956909;28;119719;-79
2021/01/11 12:41:21;;;;;;;;;;;4.50;67.50;;;;;;4974434;28;117759;-79
2021/01/11 12:43:47;;;;;;;;;;;4.40;67.50;;;;;;4975687;28;117248;-80
2021/01/11 12:46:13;;;;;;;;;;;4.50;67.60;;;;;;4952991;28;120561;-80
2021/01/11 12:48:38;;;;;;;;;;;4.40;67.60;;;;;;4952436;28;119878;-80
2021/01/11 12:51:05;;;;;;;;;;;4.40;67.60;;;;;;4953275;28;117301;-80
2021/01/11 12:53:31;;;;;;;;;;;4.40;67.60;;;;;;4953636;28;117534;-80
2021/01/11 12:55:57;;;;;;;;;;;4.40;67.60;;;;;;4968799;28;118663;-80
2021/01/11 12:58:22;;;;;;;;;;;4.50;67.70;;;;;;4951485;28;118332;-80
2021/01/11 13:00:48;;;;;;;;;;;4.40;67.60;;;;;;4952641;28;117699;-80
2021/01/11 13:03:13;;;;;;;;;;;4.50;67.70;;;;;;4953276;28;117483;-80
2021/01/11 13:05:39;;;;;;;;;;;4.40;67.60;;;;;;4951985;28;119940;-80
2021/01/11 13:08:05;;;;;;;;;;;4.40;67.60;;;;;;4952293;28;120939;-80
2021/01/11 13:10:30;;;;;;;;;;;4.50;67.60;;;;;;4987988;28;116954;-80
2021/01/11 13:12:56;;;;;;;;;;;4.50;67.60;;;;;;4953401;28;117804;-80
2021/01/11 13:15:22;;;;;;;;;;;4.40;67.60;;;;;;4952371;28;120707;-80
2021/01/11 13:17:47;;;;;;;;;;;4.40;67.60;;;;;;4952859;28;119188;-80
2021/01/11 13:20:13;;;;;;;;;;;4.40;67.60;;;;;;4969935;28;117426;-80
2021/01/11 13:22:38;;;;;;;;;;;4.40;67.60;;;;;;4953225;28;117333;-80
2021/01/11 13:25:05;;;;;;;;;;;4.40;67.60;;;;;;4969272;28;118568;-80
2021/01/11 13:27:30;;;;;;;;;;;4.40;67.60;;;;;;4969759;28;117517;-80
2021/01/11 13:29:56;;;;;;;;;;;4.40;67.60;;;;;;4953283;28;117533;-80
2021/01/11 13:32:21;;;;;;;;;;;4.40;67.60;;;;;;4953966;28;117602;-80
2021/01/11 13:34:47;;;;;;;;;;;4.40;67.70;;;;;;4969328;28;119594;-80
2021/01/11 13:37:13;;;;;;;;;;;4.40;67.60;;;;;;4969756;28;118109;-80
2021/01/11 13:39:38;;;;;;;;;;;4.40;67.70;;;;;;4954761;28;117466;-80
2021/01/11 13:42:07;;;;;;;;;;;4.40;67.70;;;;;;4954650;28;117491;-80
2021/01/11 13:44:33;;;;;;;;;;;4.40;67.60;;;;;;4970806;28;117519;-80
2021/01/11 13:46:58;;;;;;;;;;;4.40;67.60;;;;;;4953297;28;118792;-80
2021/01/11 13:49:24;;;;;;;;;;;4.40;67.70;;;;;;4955139;28;117318;-80
2021/01/11 13:51:53;;;;;;;;;;;4.40;67.70;;;;;;4972401;28;117353;-80
2021/01/11 13:54:19;;;;;;;;;;;4.40;67.70;;;;;;4955140;28;120220;-80
2021/01/11 13:56:45;;;;;;;;;;;4.40;67.70;;;;;;4955307;28;117986;-80
2021/01/11 13:59:12;;;;;;;;;;;4.40;67.80;;;;;;4954935;28;117538;-80
2021/01/11 14:01:41;;;;;;;;;;;4.40;67.60;;;;;;4969732;28;117743;-80
2021/01/11 14:04:06;;;;;;;;;;;4.40;67.80;;;;;;4953338;28;120381;-80
2021/01/11 14:06:32;;;;;;;;;;;4.40;67.70;;;;;;4971251;28;117795;-80
2021/01/11 14:08:57;;;;;;;;;;;4.40;67.70;;;;;;4971835;28;117518;-80
2021/01/11 14:11:23;;;;;;;;;;;4.40;67.70;;;;;;4955364;28;117489;-80
2021/01/11 14:13:49;;;;;;;;;;;4.40;67.60;;;;;;4954228;28;118368;-80